sensor_id;sensor_type;location;lat;lon;timestamp;pressure;altitude;pressure_sealevel;temperature;humidity
42289;BME280;30230;47.520;19.016;2023-02-12T00:01:33;100256.59;;;3.59;84.78
42289;BME280;30230;47.520;19.016;2023-02-12T00:03:34;100257.00;;;3.54;85.82
42289;BME280;30230;47.520;19.016;2023-02-12T00:05:39;100260.00;;;3.40;86.36
42289;BME280;30230;47.520;19.016;2023-02-12T00:07:40;100266.38;;;3.49;86.56
42289;BME280;30230;47.520;19.016;2023-02-12T00:09:41;100269.31;;;3.46;86.81
42289;BME280;30230;47.520;19.016;2023-02-12T00:11:41;100271.53;;;3.40;88.01
42289;BME280;30230;47.520;19.016;2023-02-12T00:13:42;100270.94;;;3.58;86.74
42289;BME280;30230;47.520;19.016;2023-02-12T00:15:43;100272.34;;;3.31;88.21
42289;BME280;30230;47.520;19.016;2023-02-12T00:17:43;100295.72;;;3.39;88.59
42289;BME280;30230;47.520;19.016;2023-02-12T00:19:43;100288.84;;;3.36;88.96
42289;BME280;30230;47.520;19.016;2023-02-12T00:21:44;100286.28;;;3.35;88.91
42289;BME280;30230;47.520;19.016;2023-02-12T00:23:45;100283.41;;;3.48;88.64
42289;BME280;30230;47.520;19.016;2023-02-12T00:25:45;100294.63;;;3.51;88.55
42289;BME280;30230;47.520;19.016;2023-02-12T00:27:46;100298.03;;;3.53;88.75
42289;BME280;30230;47.520;19.016;2023-02-12T00:29:46;100288.47;;;3.51;88.93
42289;BME280;30230;47.520;19.016;2023-02-12T00:31:46;100279.44;;;3.42;89.73
42289;BME280;30230;47.520;19.016;2023-02-12T00:33:47;100294.88;;;3.38;89.82
42289;BME280;30230;47.520;19.016;2023-02-12T00:35:57;100290.28;;;3.50;90.43
42289;BME280;30230;47.520;19.016;2023-02-12T00:37:57;100288.47;;;3.51;89.66
42289;BME280;30230;47.520;19.016;2023-02-12T00:39:58;100282.81;;;3.44;89.96
42289;BME280;30230;47.520;19.016;2023-02-12T00:41:58;100278.66;;;3.61;89.91
42289;BME280;30230;47.520;19.016;2023-02-12T00:43:59;100275.59;;;3.65;89.58
42289;BME280;30230;47.520;19.016;2023-02-12T00:45:59;100270.28;;;3.45;90.09
42289;BME280;30230;47.520;19.016;2023-02-12T00:47:59;100258.91;;;3.43;90.71
42289;BME280;30230;47.520;19.016;2023-02-12T00:50:00;100266.78;;;3.44;90.74
42289;BME280;30230;47.520;19.016;2023-02-12T00:52:02;100256.69;;;3.48;91.54
42289;BME280;30230;47.520;19.016;2023-02-12T00:54:03;100259.81;;;3.53;90.97
42289;BME280;30230;47.520;19.016;2023-02-12T00:56:03;100270.03;;;3.48;91.30
42289;BME280;30230;47.520;19.016;2023-02-12T00:58:04;100250.31;;;3.39;91.73
42289;BME280;30230;47.520;19.016;2023-02-12T01:00:05;100264.59;;;3.59;91.42
42289;BME280;30230;47.520;19.016;2023-02-12T01:02:06;100277.25;;;3.57;91.77
42289;BME280;30230;47.520;19.016;2023-02-12T01:04:06;100272.81;;;3.46;92.59
42289;BME280;30230;47.520;19.016;2023-02-12T01:06:07;100262.38;;;3.33;93.25
42289;BME280;30230;47.520;19.016;2023-02-12T01:08:11;100259.34;;;3.48;93.20
42289;BME280;30230;47.520;19.016;2023-02-12T01:10:12;100253.81;;;3.39;93.27
42289;BME280;30230;47.520;19.016;2023-02-12T01:12:12;100257.69;;;3.47;92.84
42289;BME280;30230;47.520;19.016;2023-02-12T01:14:13;100264.97;;;3.45;93.05
42289;BME280;30230;47.520;19.016;2023-02-12T01:16:19;100271.28;;;3.44;93.12
42289;BME280;30230;47.520;19.016;2023-02-12T01:18:21;100273.69;;;3.47;93.18
42289;BME280;30230;47.520;19.016;2023-02-12T01:20:23;100230.56;;;3.21;93.61
42289;BME280;30230;47.520;19.016;2023-02-12T01:22:24;100252.69;;;3.32;93.89
42289;BME280;30230;47.520;19.016;2023-02-12T01:24:24;100259.84;;;3.32;94.39
42289;BME280;30230;47.520;19.016;2023-02-12T01:26:26;100269.16;;;3.37;95.17
42289;BME280;30230;47.520;19.016;2023-02-12T01:28:27;100261.41;;;3.34;93.83
42289;BME280;30230;47.520;19.016;2023-02-12T01:30:27;100252.88;;;3.50;93.91
42289;BME280;30230;47.520;19.016;2023-02-12T01:32:27;100259.00;;;3.62;93.17
42289;BME280;30230;47.520;19.016;2023-02-12T01:34:28;100252.03;;;3.50;93.27
42289;BME280;30230;47.520;19.016;2023-02-12T01:36:29;100255.25;;;3.44;94.08
42289;BME280;30230;47.520;19.016;2023-02-12T01:38:30;100246.81;;;3.38;93.49
42289;BME280;30230;47.520;19.016;2023-02-12T01:40:30;100255.91;;;3.36;93.95
42289;BME280;30230;47.520;19.016;2023-02-12T01:42:30;100263.97;;;3.46;94.37
42289;BME280;30230;47.520;19.016;2023-02-12T01:44:32;100257.94;;;3.44;94.16
42289;BME280;30230;47.520;19.016;2023-02-12T01:46:37;100263.03;;;3.47;94.37
42289;BME280;30230;47.520;19.016;2023-02-12T01:48:43;100255.28;;;3.23;95.87
42289;BME280;30230;47.520;19.016;2023-02-12T01:50:45;100237.66;;;3.41;95.06
42289;BME280;30230;47.520;19.016;2023-02-12T01:54:54;100244.38;;;3.35;94.82
42289;BME280;30230;47.520;19.016;2023-02-12T01:56:58;100242.84;;;3.33;95.13
42289;BME280;30230;47.520;19.016;2023-02-12T01:58:59;100232.41;;;3.30;95.19
42289;BME280;30230;47.520;19.016;2023-02-12T02:01:02;100234.19;;;3.20;96.17
42289;BME280;30230;47.520;19.016;2023-02-12T02:03:04;100232.94;;;3.24;96.59
42289;BME280;30230;47.520;19.016;2023-02-12T02:05:05;100227.91;;;3.21;96.60
42289;BME280;30230;47.520;19.016;2023-02-12T02:07:07;100239.66;;;3.18;96.51
42289;BME280;30230;47.520;19.016;2023-02-12T02:09:08;100229.00;;;3.18;97.54
42289;BME280;30230;47.520;19.016;2023-02-12T02:11:09;100235.03;;;3.20;97.04
42289;BME280;30230;47.520;19.016;2023-02-12T02:13:28;100232.91;;;3.14;96.74
42289;BME280;30230;47.520;19.016;2023-02-12T02:15:50;100228.94;;;3.08;97.85
42289;BME280;30230;47.520;19.016;2023-02-12T02:17:58;100230.91;;;3.06;99.00
42289;BME280;30230;47.520;19.016;2023-02-12T02:27:20;100234.81;;;3.02;99.13
42289;BME280;30230;47.520;19.016;2023-02-12T02:34:39;100235.97;;;3.09;99.55
42289;BME280;30230;47.520;19.016;2023-02-12T02:39:02;100250.22;;;2.99;100.00
42289;BME280;30230;47.520;19.016;2023-02-12T02:41:50;100242.56;;;2.84;100.00
42289;BME280;30230;47.520;19.016;2023-02-12T02:43:50;100256.38;;;2.90;100.00
42289;BME280;30230;47.520;19.016;2023-02-12T02:46:04;100245.63;;;3.01;100.00
42289;BME280;30230;47.520;19.016;2023-02-12T02:48:11;100275.53;;;3.04;100.00
42289;BME280;30230;47.520;19.016;2023-02-12T02:50:17;100268.22;;;2.97;100.00
42289;BME280;30230;47.520;19.016;2023-02-12T02:52:23;100267.94;;;3.00;100.00
42289;BME280;30230;47.520;19.016;2023-02-12T02:54:44;100271.84;;;2.96;100.00
42289;BME280;30230;47.520;19.016;2023-02-12T02:56:49;100276.06;;;2.98;100.00
42289;BME280;30230;47.520;19.016;2023-02-12T02:58:59;100267.75;;;2.92;100.00
42289;BME280;30230;47.520;19.016;2023-02-12T03:03:28;100274.59;;;2.84;100.00
42289;BME280;30230;47.520;19.016;2023-02-12T03:05:36;100274.91;;;2.91;100.00
42289;BME280;30230;47.520;19.016;2023-02-12T03:07:46;100282.63;;;2.94;100.00
42289;BME280;30230;47.520;19.016;2023-02-12T03:09:58;100279.28;;;2.92;100.00
42289;BME280;30230;47.520;19.016;2023-02-12T03:12:12;100286.88;;;2.97;100.00
42289;BME280;30230;47.520;19.016;2023-02-12T03:14:18;100292.69;;;3.02;100.00
42289;BME280;30230;47.520;19.016;2023-02-12T03:16:24;100264.38;;;2.90;100.00
42289;BME280;30230;47.520;19.016;2023-02-12T03:18:33;100288.19;;;3.02;100.00
42289;BME280;30230;47.520;19.016;2023-02-12T03:20:53;100300.88;;;2.89;100.00
42289;BME280;30230;47.520;19.016;2023-02-12T03:23:08;100284.84;;;2.89;100.00
42289;BME280;30230;47.520;19.016;2023-02-12T03:25:14;100312.41;;;2.90;100.00
42289;BME280;30230;47.520;19.016;2023-02-12T03:27:28;100310.84;;;2.87;100.00
42289;BME280;30230;47.520;19.016;2023-02-12T03:29:31;100313.63;;;2.85;100.00
42289;BME280;30230;47.520;19.016;2023-02-12T03:31:42;100320.47;;;2.99;100.00
42289;BME280;30230;47.520;19.016;2023-02-12T03:36:02;100324.38;;;2.95;100.00
42289;BME280;30230;47.520;19.016;2023-02-12T03:40:33;100325.69;;;3.01;100.00
42289;BME280;30230;47.520;19.016;2023-02-12T03:42:40;100322.22;;;3.10;100.00
42289;BME280;30230;47.520;19.016;2023-02-12T03:49:30;100319.63;;;2.99;100.00
42289;BME280;30230;47.520;19.016;2023-02-12T03:51:38;100337.59;;;2.97;100.00
42289;BME280;30230;47.520;19.016;2023-02-12T03:53:39;100336.09;;;3.04;100.00
42289;BME280;30230;47.520;19.016;2023-02-12T03:55:45;100343.84;;;3.07;100.00
42289;BME280;30230;47.520;19.016;2023-02-12T03:57:50;100344.69;;;3.07;100.00
42289;BME280;30230;47.520;19.016;2023-02-12T03:59:53;100351.19;;;3.14;100.00
42289;BME280;30230;47.520;19.016;2023-02-12T04:01:57;100355.84;;;3.12;100.00
42289;BME280;30230;47.520;19.016;2023-02-12T04:04:05;100348.97;;;2.99;100.00
42289;BME280;30230;47.520;19.016;2023-02-12T04:06:19;100362.06;;;3.02;100.00
42289;BME280;30230;47.520;19.016;2023-02-12T04:08:19;100363.13;;;3.10;100.00
42289;BME280;30230;47.520;19.016;2023-02-12T04:10:26;100378.19;;;3.11;100.00
42289;BME280;30230;47.520;19.016;2023-02-12T04:12:50;100383.94;;;2.96;100.00
42289;BME280;30230;47.520;19.016;2023-02-12T04:15:15;100385.97;;;3.03;100.00
42289;BME280;30230;47.520;19.016;2023-02-12T04:17:24;100389.28;;;2.96;100.00
42289;BME280;30230;47.520;19.016;2023-02-12T04:20:06;100394.25;;;3.00;100.00
42289;BME280;30230;47.520;19.016;2023-02-12T04:24:47;100409.50;;;2.98;100.00
42289;BME280;30230;47.520;19.016;2023-02-12T04:26:58;100419.63;;;2.95;100.00
42289;BME280;30230;47.520;19.016;2023-02-12T04:31:30;100413.31;;;2.96;100.00
42289;BME280;30230;47.520;19.016;2023-02-12T04:33:45;100404.09;;;2.88;100.00
42289;BME280;30230;47.520;19.016;2023-02-12T04:36:02;100398.19;;;2.85;100.00
42289;BME280;30230;47.520;19.016;2023-02-12T04:38:28;100403.59;;;2.95;100.00
42289;BME280;30230;47.520;19.016;2023-02-12T04:40:31;100412.66;;;3.03;100.00
42289;BME280;30230;47.520;19.016;2023-02-12T04:42:41;100405.75;;;3.01;100.00
42289;BME280;30230;47.520;19.016;2023-02-12T04:44:43;100413.50;;;3.04;100.00
42289;BME280;30230;47.520;19.016;2023-02-12T04:46:43;100418.38;;;2.99;100.00
42289;BME280;30230;47.520;19.016;2023-02-12T04:48:52;100441.53;;;2.98;100.00
42289;BME280;30230;47.520;19.016;2023-02-12T04:50:53;100447.72;;;2.99;100.00
42289;BME280;30230;47.520;19.016;2023-02-12T04:52:54;100457.03;;;3.04;100.00
42289;BME280;30230;47.520;19.016;2023-02-12T04:54:54;100450.28;;;3.00;100.00
42289;BME280;30230;47.520;19.016;2023-02-12T04:56:56;100450.53;;;2.97;100.00
42289;BME280;30230;47.520;19.016;2023-02-12T04:58:56;100452.59;;;2.94;100.00
42289;BME280;30230;47.520;19.016;2023-02-12T05:00:58;100458.19;;;2.91;100.00
42289;BME280;30230;47.520;19.016;2023-02-12T05:02:58;100448.84;;;2.96;100.00
42289;BME280;30230;47.520;19.016;2023-02-12T05:04:59;100453.56;;;2.93;100.00
42289;BME280;30230;47.520;19.016;2023-02-12T05:06:59;100448.84;;;2.96;100.00
42289;BME280;30230;47.520;19.016;2023-02-12T05:09:00;100468.09;;;3.00;100.00
42289;BME280;30230;47.520;19.016;2023-02-12T05:11:05;100467.72;;;3.04;100.00
42289;BME280;30230;47.520;19.016;2023-02-12T05:13:06;100475.34;;;3.09;100.00
42289;BME280;30230;47.520;19.016;2023-02-12T05:15:06;100480.00;;;3.07;100.00
42289;BME280;30230;47.520;19.016;2023-02-12T05:17:07;100480.53;;;2.90;100.00
42289;BME280;30230;47.520;19.016;2023-02-12T05:19:07;100475.44;;;2.86;100.00
42289;BME280;30230;47.520;19.016;2023-02-12T05:21:09;100485.47;;;2.94;100.00
42289;BME280;30230;47.520;19.016;2023-02-12T05:23:09;100484.16;;;2.88;100.00
42289;BME280;30230;47.520;19.016;2023-02-12T05:25:09;100485.59;;;2.93;100.00
42289;BME280;30230;47.520;19.016;2023-02-12T05:27:10;100490.25;;;2.79;100.00
42289;BME280;30230;47.520;19.016;2023-02-12T05:29:11;100500.75;;;2.92;100.00
42289;BME280;30230;47.520;19.016;2023-02-12T05:31:16;100505.16;;;2.82;100.00
42289;BME280;30230;47.520;19.016;2023-02-12T05:33:17;100486.84;;;2.77;100.00
42289;BME280;30230;47.520;19.016;2023-02-12T05:35:18;100387.16;;;2.24;100.00
42289;BME280;30230;47.520;19.016;2023-02-12T05:37:18;100454.88;;;2.55;100.00
42289;BME280;30230;47.520;19.016;2023-02-12T05:39:19;100510.84;;;2.77;100.00
42289;BME280;30230;47.520;19.016;2023-02-12T05:41:21;100471.94;;;2.52;100.00
42289;BME280;30230;47.520;19.016;2023-02-12T05:43:22;100516.81;;;2.81;100.00
42289;BME280;30230;47.520;19.016;2023-02-12T05:45:22;100513.88;;;2.84;100.00
42289;BME280;30230;47.520;19.016;2023-02-12T05:47:27;100501.50;;;2.83;100.00
42289;BME280;30230;47.520;19.016;2023-02-12T05:49:27;100515.09;;;2.80;100.00
42289;BME280;30230;47.520;19.016;2023-02-12T05:51:28;100521.38;;;3.01;100.00
42289;BME280;30230;47.520;19.016;2023-02-12T05:53:30;100519.91;;;2.97;100.00
42289;BME280;30230;47.520;19.016;2023-02-12T05:55:30;100518.00;;;2.88;100.00
42289;BME280;30230;47.520;19.016;2023-02-12T05:57:31;100521.41;;;2.90;100.00
42289;BME280;30230;47.520;19.016;2023-02-12T05:59:31;100526.56;;;3.03;100.00
42289;BME280;30230;47.520;19.016;2023-02-12T06:01:38;100533.13;;;2.99;100.00
42289;BME280;30230;47.520;19.016;2023-02-12T06:03:39;100490.00;;;2.71;100.00
42289;BME280;30230;47.520;19.016;2023-02-12T06:05:39;100539.59;;;2.96;100.00
42289;BME280;30230;47.520;19.016;2023-02-12T06:07:40;100549.38;;;3.07;100.00
42289;BME280;30230;47.520;19.016;2023-02-12T06:09:40;100545.59;;;3.09;100.00
42289;BME280;30230;47.520;19.016;2023-02-12T06:11:41;100543.81;;;2.99;100.00
42289;BME280;30230;47.520;19.016;2023-02-12T06:13:42;100559.47;;;3.03;100.00
42289;BME280;30230;47.520;19.016;2023-02-12T06:15:42;100533.13;;;2.99;100.00
42289;BME280;30230;47.520;19.016;2023-02-12T06:17:43;100540.66;;;2.94;100.00
42289;BME280;30230;47.520;19.016;2023-02-12T06:19:43;100559.31;;;3.05;100.00
42289;BME280;30230;47.520;19.016;2023-02-12T06:21:44;100555.22;;;3.12;100.00
42289;BME280;30230;47.520;19.016;2023-02-12T06:23:47;100561.03;;;3.06;100.00
42289;BME280;30230;47.520;19.016;2023-02-12T06:25:48;100558.75;;;3.01;100.00
42289;BME280;30230;47.520;19.016;2023-02-12T06:27:48;100556.91;;;3.13;100.00
42289;BME280;30230;47.520;19.016;2023-02-12T06:29:49;100562.84;;;3.17;100.00
42289;BME280;30230;47.520;19.016;2023-02-12T06:31:49;100568.16;;;3.28;100.00
42289;BME280;30230;47.520;19.016;2023-02-12T06:33:50;100562.69;;;3.29;100.00
42289;BME280;30230;47.520;19.016;2023-02-12T06:35:50;100568.63;;;3.33;100.00
42289;BME280;30230;47.520;19.016;2023-02-12T06:37:51;100565.16;;;3.21;100.00
42289;BME280;30230;47.520;19.016;2023-02-12T06:39:51;100566.56;;;3.25;100.00
42289;BME280;30230;47.520;19.016;2023-02-12T06:41:52;100575.31;;;3.27;100.00
42289;BME280;30230;47.520;19.016;2023-02-12T06:43:53;100581.75;;;3.25;100.00
42289;BME280;30230;47.520;19.016;2023-02-12T06:45:54;100588.03;;;3.35;100.00
42289;BME280;30230;47.520;19.016;2023-02-12T06:47:54;100597.66;;;3.26;100.00
42289;BME280;30230;47.520;19.016;2023-02-12T06:49:55;100582.34;;;3.28;100.00
42289;BME280;30230;47.520;19.016;2023-02-12T06:51:55;100586.72;;;3.29;100.00
42289;BME280;30230;47.520;19.016;2023-02-12T06:53:56;100590.84;;;3.33;100.00
42289;BME280;30230;47.520;19.016;2023-02-12T06:55:56;100604.94;;;3.24;100.00
42289;BME280;30230;47.520;19.016;2023-02-12T06:57:56;100598.38;;;3.28;100.00
42289;BME280;30230;47.520;19.016;2023-02-12T06:59:57;100606.00;;;3.33;100.00
42289;BME280;30230;47.520;19.016;2023-02-12T07:01:57;100616.44;;;3.47;100.00
42289;BME280;30230;47.520;19.016;2023-02-12T07:04:00;100619.41;;;3.65;100.00
42289;BME280;30230;47.520;19.016;2023-02-12T07:06:02;100630.03;;;4.40;100.00
42289;BME280;30230;47.520;19.016;2023-02-12T07:08:03;100626.69;;;5.00;95.99
42289;BME280;30230;47.520;19.016;2023-02-12T07:10:03;100624.19;;;5.08;92.18
42289;BME280;30230;47.520;19.016;2023-02-12T07:12:04;100633.91;;;4.78;93.78
42289;BME280;30230;47.520;19.016;2023-02-12T07:14:05;100643.94;;;4.55;94.47
42289;BME280;30230;47.520;19.016;2023-02-12T07:16:09;100651.28;;;4.42;94.78
42289;BME280;30230;47.520;19.016;2023-02-12T07:18:10;100645.28;;;4.50;95.16
42289;BME280;30230;47.520;19.016;2023-02-12T07:20:10;100646.66;;;4.44;95.96
42289;BME280;30230;47.520;19.016;2023-02-12T07:22:11;100653.50;;;4.37;95.52
42289;BME280;30230;47.520;19.016;2023-02-12T07:24:12;100658.31;;;4.22;96.45
42289;BME280;30230;47.520;19.016;2023-02-12T07:26:14;100665.06;;;4.37;95.87
42289;BME280;30230;47.520;19.016;2023-02-12T07:28:14;100658.59;;;4.19;96.60
42289;BME280;30230;47.520;19.016;2023-02-12T07:30:15;100675.22;;;4.23;96.98
42289;BME280;30230;47.520;19.016;2023-02-12T07:32:15;100668.78;;;4.25;96.67
42289;BME280;30230;47.520;19.016;2023-02-12T07:34:16;100669.00;;;4.22;97.04
42289;BME280;30230;47.520;19.016;2023-02-12T07:36:18;100662.50;;;4.15;97.27
42289;BME280;30230;47.520;19.016;2023-02-12T07:38:19;100659.44;;;4.20;97.59
42289;BME280;30230;47.520;19.016;2023-02-12T07:40:19;100669.75;;;4.24;97.26
42289;BME280;30230;47.520;19.016;2023-02-12T07:42:19;100663.16;;;4.28;96.87
42289;BME280;30230;47.520;19.016;2023-02-12T07:44:20;100671.91;;;4.30;97.83
42289;BME280;30230;47.520;19.016;2023-02-12T07:46:23;100672.44;;;4.24;97.27
42289;BME280;30230;47.520;19.016;2023-02-12T07:48:25;100688.03;;;4.40;96.58
42289;BME280;30230;47.520;19.016;2023-02-12T07:50:25;100690.25;;;4.35;96.21
42289;BME280;30230;47.520;19.016;2023-02-12T07:52:26;100690.91;;;4.48;96.44
42289;BME280;30230;47.520;19.016;2023-02-12T07:54:26;100684.06;;;4.55;95.32
42289;BME280;30230;47.520;19.016;2023-02-12T07:56:28;100680.59;;;4.64;94.88
42289;BME280;30230;47.520;19.016;2023-02-12T07:58:31;100678.25;;;4.71;94.23
42289;BME280;30230;47.520;19.016;2023-02-12T08:00:31;100678.16;;;5.03;92.05
42289;BME280;30230;47.520;19.016;2023-02-12T08:02:32;100677.25;;;5.23;91.18
42289;BME280;30230;47.520;19.016;2023-02-12T08:04:32;100670.22;;;5.22;90.45
42289;BME280;30230;47.520;19.016;2023-02-12T08:06:35;100681.72;;;5.13;90.90
42289;BME280;30230;47.520;19.016;2023-02-12T08:08:36;100690.34;;;5.17;90.55
42289;BME280;30230;47.520;19.016;2023-02-12T08:10:40;100696.38;;;5.49;89.75
42289;BME280;30230;47.520;19.016;2023-02-12T08:12:40;100686.03;;;5.85;86.19
42289;BME280;30230;47.520;19.016;2023-02-12T08:14:41;100680.59;;;5.96;84.77
42289;BME280;30230;47.520;19.016;2023-02-12T08:16:42;100688.22;;;6.01;84.19
42289;BME280;30230;47.520;19.016;2023-02-12T08:18:44;100700.47;;;5.94;84.59
42289;BME280;30230;47.520;19.016;2023-02-12T08:20:44;100699.50;;;5.95;84.54
42289;BME280;30230;47.520;19.016;2023-02-12T08:22:45;100700.06;;;5.98;84.50
42289;BME280;30230;47.520;19.016;2023-02-12T08:24:46;100699.41;;;6.25;82.58
42289;BME280;30230;47.520;19.016;2023-02-12T08:26:46;100673.94;;;6.59;81.21
42289;BME280;30230;47.520;19.016;2023-02-12T08:28:53;100698.72;;;7.46;76.94
42289;BME280;30230;47.520;19.016;2023-02-12T08:30:59;100701.09;;;7.77;74.87
42289;BME280;30230;47.520;19.016;2023-02-12T08:32:59;100698.75;;;7.64;74.99
42289;BME280;30230;47.520;19.016;2023-02-12T08:35:00;100708.56;;;7.83;74.20
42289;BME280;30230;47.520;19.016;2023-02-12T08:37:05;100713.78;;;7.84;73.45
42289;BME280;30230;47.520;19.016;2023-02-12T08:39:07;100701.88;;;7.60;74.06
42289;BME280;30230;47.520;19.016;2023-02-12T08:41:13;100716.03;;;7.34;76.21
42289;BME280;30230;47.520;19.016;2023-02-12T08:43:13;100712.16;;;7.09;76.36
42289;BME280;30230;47.520;19.016;2023-02-12T08:45:14;100718.53;;;6.98;77.32
42289;BME280;30230;47.520;19.016;2023-02-12T08:47:14;100717.72;;;6.88;78.20
42289;BME280;30230;47.520;19.016;2023-02-12T08:49:20;100721.81;;;6.83;78.53
42289;BME280;30230;47.520;19.016;2023-02-12T08:51:24;100728.03;;;6.73;78.40
42289;BME280;30230;47.520;19.016;2023-02-12T08:53:25;100737.38;;;6.60;78.79
42289;BME280;30230;47.520;19.016;2023-02-12T08:55:25;100731.31;;;6.67;78.03
42289;BME280;30230;47.520;19.016;2023-02-12T08:57:27;100731.13;;;6.98;77.56
42289;BME280;30230;47.520;19.016;2023-02-12T08:59:28;100748.09;;;6.89;77.15
42289;BME280;30230;47.520;19.016;2023-02-12T09:01:30;100752.03;;;6.94;76.86
42289;BME280;30230;47.520;19.016;2023-02-12T09:03:31;100750.47;;;7.01;76.84
42289;BME280;30230;47.520;19.016;2023-02-12T09:05:31;100744.50;;;7.17;76.06
42289;BME280;30230;47.520;19.016;2023-02-12T09:07:32;100753.75;;;6.95;75.47
42289;BME280;30230;47.520;19.016;2023-02-12T09:09:32;100755.75;;;6.74;76.53
42289;BME280;30230;47.520;19.016;2023-02-12T09:11:33;100760.69;;;6.69;76.92
42289;BME280;30230;47.520;19.016;2023-02-12T09:13:35;100761.38;;;6.71;77.77
42289;BME280;30230;47.520;19.016;2023-02-12T09:15:43;100755.72;;;6.93;79.47
42289;BME280;30230;47.520;19.016;2023-02-12T09:17:44;100761.03;;;7.13;84.13
42289;BME280;30230;47.520;19.016;2023-02-12T09:19:44;100765.47;;;7.51;82.21
42289;BME280;30230;47.520;19.016;2023-02-12T09:21:44;100764.03;;;8.57;86.22
42289;BME280;30230;47.520;19.016;2023-02-12T09:23:46;100764.72;;;9.47;84.03
42289;BME280;30230;47.520;19.016;2023-02-12T09:25:46;100761.50;;;9.43;68.58
42289;BME280;30230;47.520;19.016;2023-02-12T09:27:46;100776.28;;;9.13;68.24
42289;BME280;30230;47.520;19.016;2023-02-12T09:29:47;100769.56;;;8.73;69.31
42289;BME280;30230;47.520;19.016;2023-02-12T09:31:47;100783.06;;;8.38;69.63
42289;BME280;30230;47.520;19.016;2023-02-12T09:33:48;100786.06;;;8.25;70.38
42289;BME280;30230;47.520;19.016;2023-02-12T09:35:48;100771.97;;;8.13;70.93
42289;BME280;30230;47.520;19.016;2023-02-12T09:37:51;100787.28;;;8.13;70.66
42289;BME280;30230;47.520;19.016;2023-02-12T09:39:51;100781.63;;;8.06;70.54
42289;BME280;30230;47.520;19.016;2023-02-12T09:50:50;100781.75;;;8.59;68.09
42289;BME280;30230;47.520;19.016;2023-02-12T09:52:53;100773.78;;;8.58;67.58
42289;BME280;30230;47.520;19.016;2023-02-12T09:54:57;100785.59;;;8.75;68.18
42289;BME280;30230;47.520;19.016;2023-02-12T09:56:59;100787.66;;;8.81;67.23
42289;BME280;30230;47.520;19.016;2023-02-12T09:59:06;100786.88;;;8.88;66.52
42289;BME280;30230;47.520;19.016;2023-02-12T10:01:11;100783.31;;;9.06;66.97
42289;BME280;30230;47.520;19.016;2023-02-12T10:03:16;100792.81;;;9.10;65.97
42289;BME280;30230;47.520;19.016;2023-02-12T10:05:19;100781.41;;;8.98;65.94
42289;BME280;30230;47.520;19.016;2023-02-12T10:12:29;100797.03;;;9.12;65.83
42289;BME280;30230;47.520;19.016;2023-02-12T10:15:01;100798.31;;;9.08;65.95
42289;BME280;30230;47.520;19.016;2023-02-12T10:22:30;100806.53;;;9.25;63.54
42289;BME280;30230;47.520;19.016;2023-02-12T10:26:56;100809.75;;;9.46;62.86
42289;BME280;30230;47.520;19.016;2023-02-12T10:29:04;100808.75;;;9.55;62.41
42289;BME280;30230;47.520;19.016;2023-02-12T10:31:14;100817.66;;;9.74;62.08
42289;BME280;30230;47.520;19.016;2023-02-12T10:33:24;100816.03;;;9.89;62.04
42289;BME280;30230;47.520;19.016;2023-02-12T10:35:26;100809.63;;;9.90;60.52
42289;BME280;30230;47.520;19.016;2023-02-12T10:37:57;100807.38;;;10.11;60.58
42289;BME280;30230;47.520;19.016;2023-02-12T10:40:20;100810.50;;;10.33;59.58
42289;BME280;30230;47.520;19.016;2023-02-12T10:42:37;100801.47;;;10.66;59.11
42289;BME280;30230;47.520;19.016;2023-02-12T10:44:39;100803.19;;;10.76;57.49
42289;BME280;30230;47.520;19.016;2023-02-12T10:46:40;100815.59;;;10.36;56.87
42289;BME280;30230;47.520;19.016;2023-02-12T10:48:43;100802.94;;;10.02;58.07
42289;BME280;30230;47.520;19.016;2023-02-12T10:52:55;100813.84;;;9.58;60.30
42289;BME280;30230;47.520;19.016;2023-02-12T10:54:57;100806.81;;;9.39;60.76
42289;BME280;30230;47.520;19.016;2023-02-12T10:56:59;100813.66;;;9.26;61.43
42289;BME280;30230;47.520;19.016;2023-02-12T10:59:05;100815.63;;;9.24;61.23
42289;BME280;30230;47.520;19.016;2023-02-12T11:01:16;100812.69;;;8.91;62.39
42289;BME280;30230;47.520;19.016;2023-02-12T11:03:21;100816.28;;;8.82;63.31
42289;BME280;30230;47.520;19.016;2023-02-12T11:05:24;100814.50;;;8.73;64.19
42289;BME280;30230;47.520;19.016;2023-02-12T11:07:26;100815.84;;;8.69;64.92
42289;BME280;30230;47.520;19.016;2023-02-12T11:09:37;100819.00;;;8.64;65.12
42289;BME280;30230;47.520;19.016;2023-02-12T11:11:57;100796.66;;;8.26;65.82
42289;BME280;30230;47.520;19.016;2023-02-12T11:14:01;100823.13;;;8.31;66.49
42289;BME280;30230;47.520;19.016;2023-02-12T11:16:04;100825.25;;;8.37;66.34
42289;BME280;30230;47.520;19.016;2023-02-12T11:18:06;100815.03;;;8.41;66.27
42289;BME280;30230;47.520;19.016;2023-02-12T11:20:23;100822.13;;;8.32;67.30
42289;BME280;30230;47.520;19.016;2023-02-12T11:22:24;100818.38;;;8.25;67.15
42289;BME280;30230;47.520;19.016;2023-02-12T11:26:28;100823.19;;;8.21;68.12
42289;BME280;30230;47.520;19.016;2023-02-12T11:28:30;100830.75;;;8.18;68.00
42289;BME280;30230;47.520;19.016;2023-02-12T11:30:32;100822.94;;;8.15;68.60
42289;BME280;30230;47.520;19.016;2023-02-12T11:32:33;100817.88;;;8.12;68.60
42289;BME280;30230;47.520;19.016;2023-02-12T11:34:34;100824.81;;;8.14;68.80
42289;BME280;30230;47.520;19.016;2023-02-12T11:36:43;100824.97;;;8.13;68.38
42289;BME280;30230;47.520;19.016;2023-02-12T11:38:52;100819.03;;;8.09;68.59
42289;BME280;30230;47.520;19.016;2023-02-12T11:40:58;100812.22;;;8.05;68.37
42289;BME280;30230;47.520;19.016;2023-02-12T11:43:06;100811.38;;;8.04;67.73